createdAt,value
2022-10-10T00:03:55.081Z,0.4
2022-10-10T00:08:55.256Z,0.4
2022-10-10T00:13:55.404Z,0.4
2022-10-10T00:18:55.613Z,0.4
2022-10-10T00:23:54.876Z,0.4
2022-10-10T00:28:54.989Z,0.4
2022-10-10T00:33:55.194Z,0.4
2022-10-10T00:38:55.872Z,0.4
2022-10-10T00:43:55.166Z,0.4
2022-10-10T00:48:55.344Z,0.4
2022-10-10T00:53:55.474Z,0.4
2022-10-10T00:58:55.561Z,0.4
2022-10-10T01:03:55.782Z,0.4
2022-10-10T01:08:55.079Z,0.4
2022-10-10T01:13:55.437Z,0.4
2022-10-10T01:18:55.627Z,0.4
2022-10-10T01:23:55.695Z,0.4
2022-10-10T01:28:55.770Z,0.4
2022-10-10T01:33:54.960Z,0.4
2022-10-10T01:38:55.852Z,0.4
2022-10-10T01:43:55.082Z,0.4
2022-10-10T01:48:55.309Z,0.4
2022-10-10T01:53:55.491Z,0.4
2022-10-10T01:58:55.942Z,0.4
2022-10-10T02:03:55.109Z,0.4
2022-10-10T02:08:55.449Z,0.4
2022-10-10T02:13:55.563Z,0.4
2022-10-10T02:18:55.670Z,0.4
2022-10-10T02:23:55.893Z,0.4
2022-10-10T02:28:55.064Z,0.4
2022-10-10T02:33:55.360Z,0.4
2022-10-10T02:38:55.959Z,0.4
2022-10-10T02:43:55.428Z,0.4
2022-10-10T02:48:55.736Z,0.9
2022-10-10T02:53:55.329Z,0.9
2022-10-10T02:58:55.275Z,0.9
2022-10-10T03:03:55.709Z,0.9
2022-10-10T03:08:55.367Z,0.9
2022-10-10T03:13:55.488Z,0.9
2022-10-10T03:18:55.126Z,0.7
2022-10-10T03:23:55.270Z,0.7
2022-10-10T03:28:55.887Z,0.4
2022-10-10T03:33:55.880Z,0.4
2022-10-10T03:38:55.854Z,0.4
2022-10-10T03:43:55.713Z,0.4
2022-10-10T03:48:55.135Z,0.4
2022-10-10T03:53:55.281Z,0.4
2022-10-10T03:58:56.001Z,0.4
2022-10-10T04:03:55.642Z,0.4
2022-10-10T04:08:55.133Z,0.4
2022-10-10T04:13:55.668Z,0.4
2022-10-10T04:18:56.092Z,0.4
2022-10-10T04:23:55.407Z,0.4
2022-10-10T04:28:55.049Z,0.4
2022-10-10T04:33:55.396Z,0.4
2022-10-10T04:38:56.017Z,0.4
2022-10-10T04:43:55.345Z,0.4
2022-10-10T04:48:55.510Z,0.4
2022-10-10T04:53:55.694Z,0.4
2022-10-10T04:58:55.921Z,0.4
2022-10-10T05:03:55.195Z,0.4
2022-10-10T06:48:55.806Z,0.4
2022-10-10T06:53:56.065Z,0.4
2022-10-10T06:58:55.225Z,0.4
2022-10-10T07:03:55.485Z,0.4
2022-10-10T07:08:55.809Z,0.9
2022-10-10T07:13:55.465Z,0.9
2022-10-10T07:18:55.720Z,0.8
2022-10-10T07:23:55.861Z,0.8
2022-10-10T07:28:56.112Z,0.9
2022-10-10T07:33:55.166Z,0.9
2022-10-10T07:38:56.179Z,0.9
2022-10-10T07:43:55.295Z,0.9
2022-10-10T07:48:55.874Z,0.9
2022-10-10T07:53:56.152Z,0.9
2022-10-10T07:58:55.656Z,0.5
2022-10-10T08:03:56.038Z,0.5
2022-10-10T08:08:55.291Z,0.6
2022-10-10T08:13:55.694Z,0.6
2022-10-10T08:18:55.779Z,0.9
2022-10-10T08:23:55.865Z,0.9
2022-10-10T08:28:55.988Z,0.9
2022-10-10T08:33:56.169Z,0.9
2022-10-10T08:38:56.092Z,0.4
2022-10-10T08:43:55.354Z,0.4
2022-10-10T08:48:55.762Z,0.9
2022-10-10T08:53:56.145Z,0.9
2022-10-10T08:58:55.693Z,0.9
2022-10-10T09:03:55.441Z,0.9
2022-10-10T09:08:55.412Z,0.4
2022-10-10T09:13:56.011Z,0.4
2022-10-10T09:18:56.194Z,0.4
2022-10-10T09:23:55.735Z,0.4
2022-10-10T09:28:56.358Z,0.4
2022-10-10T09:33:55.760Z,0.4
2022-10-10T09:38:55.481Z,0.9
2022-10-10T09:43:55.639Z,0.9
2022-10-10T09:48:55.978Z,0.6
2022-10-10T09:53:56.205Z,0.6
2022-10-10T09:58:55.431Z,0.6
2022-10-10T10:04:26.572Z,0.6
2022-10-10T10:08:55.369Z,0.6
2022-10-10T10:13:55.630Z,0.6
2022-10-10T10:18:55.783Z,1.2
2022-10-10T10:23:55.326Z,1.2
2022-10-10T10:28:55.729Z,0.9
2022-10-10T10:33:56.186Z,0.9
2022-10-10T10:38:55.682Z,0.8
2022-10-10T10:43:55.822Z,0.8
2022-10-10T10:48:56.201Z,0.9
2022-10-10T10:53:55.426Z,0.9
2022-10-10T11:00:21.918Z,0.7
2022-10-10T11:05:28.995Z,0.7
2022-10-10T11:08:55.303Z,0.9
2022-10-10T11:13:55.834Z,0.9
2022-10-10T11:18:56.015Z,0.6
2022-10-10T11:23:56.252Z,0.6
2022-10-10T11:28:55.614Z,0.9
2022-10-10T11:33:57.752Z,0.9
2022-10-10T11:38:55.946Z,1.1
2022-10-10T11:43:56.162Z,1.1
2022-10-10T11:48:55.411Z,0.9
2022-10-10T11:53:55.488Z,0.9
2022-10-10T11:58:55.769Z,0.9
2022-10-10T12:03:55.950Z,0.9
2022-10-10T12:08:56.228Z,1.2
2022-10-10T12:13:55.442Z,1.2
2022-10-10T12:18:55.857Z,1.5
2022-10-10T12:23:56.053Z,1.5
2022-10-10T12:28:56.303Z,1.8
2022-10-10T12:33:55.640Z,1.8
2022-10-10T12:39:00.916Z,1.3
2022-10-10T12:43:56.118Z,1.3
2022-10-10T12:48:55.635Z,1.7
2022-10-10T12:53:55.914Z,1.7
2022-10-10T12:58:56.047Z,1.8
2022-10-10T13:03:56.242Z,1.8
2022-10-10T13:08:55.450Z,2
2022-10-10T13:13:55.679Z,2
2022-10-10T13:18:55.900Z,1.5
2022-10-10T13:28:56.325Z,1.7
2022-10-10T13:33:55.971Z,1.7
2022-10-10T13:38:55.351Z,1.3
2022-10-10T13:43:55.842Z,1.3
2022-10-10T13:48:55.977Z,1.8
2022-10-10T13:53:56.247Z,1.8
2022-10-10T13:58:55.492Z,1.3
2022-10-10T14:03:55.937Z,1.3
2022-10-10T14:08:56.132Z,1.3
2022-10-10T14:13:56.653Z,1.3
2022-10-10T14:18:56.008Z,0.9
2022-10-10T14:23:56.308Z,0.9
2022-10-10T14:28:55.544Z,1.4
2022-10-10T14:33:55.821Z,1.4
2022-10-10T14:38:55.784Z,1.2
2022-10-10T14:43:55.565Z,1.2
2022-10-10T14:48:55.721Z,1.3
2022-10-10T14:54:14.469Z,1.3
2022-10-10T14:58:56.364Z,1.4
2022-10-10T15:03:55.537Z,1.4
2022-10-10T15:08:56.261Z,0.8
2022-10-10T15:13:55.392Z,0.8
2022-10-10T15:18:55.808Z,0.9
2022-10-10T15:23:55.561Z,0.9
2022-10-10T15:28:56.454Z,0.9
2022-10-10T15:33:55.888Z,0.9
2022-10-10T15:38:56.219Z,0.9
2022-10-10T15:43:56.336Z,0.9
2022-10-10T15:48:55.494Z,0.9
2022-10-10T15:53:55.797Z,0.9
2022-10-10T15:58:56.240Z,1.1
2022-10-10T16:03:56.278Z,1.1
2022-10-10T16:09:28.216Z,1.8
2022-10-10T16:13:56.275Z,1.8
2022-10-10T16:18:56.550Z,1.8
2022-10-10T16:23:58.426Z,1.8
2022-10-10T16:28:55.622Z,1.8
2022-10-10T16:33:55.912Z,1.8
2022-10-10T16:38:56.097Z,1.6
2022-10-10T16:43:55.801Z,1.6
2022-10-10T16:48:56.073Z,1.1
2022-10-10T16:53:56.256Z,1.1
2022-10-10T16:58:56.338Z,1.3
2022-10-10T17:03:55.546Z,1.3
2022-10-10T17:08:56.059Z,1.3
2022-10-10T17:13:56.378Z,1.3
2022-10-10T17:18:55.509Z,1.8
2022-10-10T17:23:55.664Z,1.8
2022-10-10T17:28:55.851Z,2.3
2022-10-10T17:33:56.024Z,2.3
2022-10-10T17:38:56.308Z,3.1
2022-10-10T17:43:55.633Z,3.1
2022-10-10T17:48:56.011Z,2.7
2022-10-10T17:53:56.346Z,2.7
2022-10-10T17:58:56.454Z,2.3
2022-10-10T18:03:55.725Z,2.3
2022-10-10T18:08:55.944Z,1.2
2022-10-10T18:13:56.241Z,1.2
2022-10-10T18:18:56.410Z,0.9
2022-10-10T18:23:55.736Z,0.9
2022-10-10T18:28:56.049Z,0.9
2022-10-10T18:33:56.181Z,0.9
2022-10-10T18:38:55.957Z,0.4
2022-10-10T18:43:56.104Z,0.4
2022-10-10T18:48:56.580Z,0.4
2022-10-10T18:53:55.842Z,0.4
2022-10-10T18:58:56.142Z,0.4
2022-10-10T19:03:56.282Z,0.4
2022-10-10T19:08:56.339Z,0.6
2022-10-10T19:13:55.693Z,0.6
2022-10-10T19:18:58.957Z,0.6
2022-10-10T19:23:56.208Z,0.6
2022-10-10T19:28:56.326Z,0.4
2022-10-10T19:33:56.502Z,0.4
2022-10-10T19:38:56.396Z,0.9
2022-10-10T19:43:56.537Z,0.9
2022-10-10T19:48:55.793Z,0.4
2022-10-10T19:53:55.946Z,0.4
2022-10-10T19:58:56.248Z,0.4
2022-10-10T20:03:56.651Z,0.4
2022-10-10T20:08:55.893Z,0.4
2022-10-10T20:13:56.356Z,0.4
2022-10-10T20:18:56.605Z,0.4
2022-10-10T20:23:55.706Z,0.4
2022-10-10T20:28:56.139Z,0.4
2022-10-10T20:33:56.301Z,0.4
2022-10-10T20:38:56.343Z,0.4
2022-10-10T20:43:56.593Z,0.4
2022-10-10T20:48:55.767Z,0.4
2022-10-10T20:53:57.599Z,0.4
2022-10-10T20:58:56.229Z,0.8
2022-10-10T21:03:55.630Z,0.8
2022-10-10T21:08:56.618Z,0.4
2022-10-10T21:13:55.667Z,0.4
2022-10-10T21:18:58.913Z,0.9
2022-10-10T21:23:57.103Z,0.9
2022-10-10T21:28:56.299Z,0.6
2022-10-10T21:33:55.644Z,0.6
2022-10-10T21:38:56.156Z,0.5
2022-10-10T21:43:56.299Z,0.5
2022-10-10T21:48:56.467Z,0.4
2022-10-10T21:53:55.770Z,0.4
2022-10-10T21:59:01.824Z,0.4
2022-10-10T22:03:56.294Z,0.4
2022-10-10T22:08:56.640Z,0.6
2022-10-10T22:13:56.065Z,0.6
2022-10-10T22:18:56.326Z,0.6
2022-10-10T22:23:56.551Z,0.6
2022-10-10T22:28:56.144Z,0.8
2022-10-10T22:33:56.437Z,0.8
2022-10-10T22:38:56.225Z,0.4
2022-10-10T22:43:56.361Z,0.4
2022-10-10T22:48:56.735Z,0.4
2022-10-10T22:53:55.911Z,0.4
2022-10-10T22:58:56.117Z,0.8
2022-10-10T23:03:56.374Z,0.8
2022-10-10T23:08:56.534Z,0.9
2022-10-10T23:13:55.659Z,0.9
2022-10-10T23:18:55.725Z,0.5
2022-10-10T23:23:55.846Z,0.5
2022-10-10T23:28:56.352Z,0.4
2022-10-10T23:33:55.721Z,0.4
2022-10-10T23:38:55.776Z,0.4
2022-10-10T23:43:55.972Z,0.4
2022-10-10T23:48:56.237Z,0.9
2022-10-10T23:53:56.452Z,0.9
2022-10-10T23:58:56.735Z,0.9
